AirNav   Air Wisconsin pilot careers
 
 898 users online  

5NC3 Reed Mine Airport
Locust, North Carolina, USA

GOING TO LOCUST?


FAA INFORMATION EFFECTIVE 03 JANUARY 2019

Location

FAA Identifier: 5NC3
Lat/Long: 35-17-57.7900N / 080-27-28.2000W
35-17.963167N / 080-27.470000W
35.2993861 / -80.4578333
(estimated)
Elevation: 581 ft. / 177 m (estimated)
From city: 3 miles NNW of LOCUST, NC
Time zone: UTC -5 (UTC -4 during Daylight Saving Time)
Zip code: 28097

Airport Operations

Airport use: Private use. Permission required prior to landing
Activation date: 01/2018
Control tower: no
ARTCC: ATLANTA CENTER
FSS: RALEIGH FLIGHT SERVICE STATION
Attendance: 
Segmented circle: no

Airport Communications

WX AWOS-3 at JQF (13 nm NW): 133.675 (704-785-2145)
WX AWOS-3 at VUJ (17 nm NE): 128.175 (704-986-2097)
WX ASOS at EQY (19 nm SW): 135.775 (704-283-5185)

Nearby radio navigation aids

VOR radial/distance  VOR name  Freq  Var
CLTr080/25.1CHARLOTTE VOR/DME115.0005W
CTFr350/40.0CHESTERFIELD VOR/DME108.2003W

 
NDB name  Hdg/Dist  Freq  Var  ID
STONIA085/34.926006WGHJ --. .... .---
LANCASTER037/39.840007WLKR .-.. -.- .-.

Airport Services

Runway Information

Runway 3/21

Dimensions: 2000 x 75 ft. / 610 x 23 m
Surface: turf, in fair condition
RUNWAY 3  RUNWAY 21
Traffic pattern: leftleft

Airport Ownership and Management from official FAA records

Ownership: Privately-owned
Owner: CHRISTOPHER LOGAN
9659 WIDESPREAD AVE NW
CONCORD, NC 28027
Phone 704-773-1676
Manager: CHRISTOPHER LOGAN
9659 WIDESPREAD AVE NW
CONCORD, NC 28027
Phone 704-773-1676

Instrument Procedures

There are no published instrument procedures at 5NC3.

Some nearby airports with instrument procedures:

KJQF - Concord-Padgett Regional Airport (13 nm NW)
KVUJ - Stanly County Airport (17 nm NE)
KEQY - Charlotte-Monroe Executive Airport (19 nm SW)
KRUQ - Mid-Carolina Regional Airport (21 nm N)
KCLT - Charlotte/Douglas International Airport (25 nm W)
 
Loc | Ops | Rwys | IFR | FBO | Links
Com | Nav | Svcs | Stats | Notes
Aerial photo
No photo
 
Airport distance calculator
Flying to Reed Mine Airport? Find the distance to fly.

From to 5NC3

Sunrise and sunset
Times for 18-Jan-2019
 Local
(UTC-5)
 Zulu
(UTC)
Morning civil twilight07:0312:03
Sunrise07:3012:30
Sunset17:3422:34
Evening civil twilight18:0223:02

Current date and time
Zulu (UTC)  19-Jan-2019 01:44:11
Local (UTC-5)  18-Jan-2019 20:44:11
 
METAR
KJQF 
14nm W 
190050Z 00000KT 7SM CLR 06/06 A3014
KVUJ 
17nm NE 
190120Z AUTO 00000KT 4SM BR CLR 03/03 A3017 RMK AO2 T00310031
KEQY 
19nm SW 
190053Z AUTO 23003KT 5SM BR OVC008 07/06 A3012 RMK AO2 SLP217 T00720056
KRUQ 
21nm N 
190100Z AUTO 00000KT 3/4SM BR BKN004 03/03 A3013 RMK AO2 T00260025
KCLT 
25nm W 
190052Z 15004KT 6SM BR BKN013 BKN250 08/07 A3013 RMK AO2 SLP204 T00780067
KAFP 
25nm SE 
190120Z AUTO 00000KT 3/4SM BR VV005 04/03 A3014 RMK AO2 T00390031
TAF
KCLT 
25nm W 
182257Z 1823/1924 18003KT P6SM SCT250 FM190400 00000KT 6SM BR BKN029 FM190900 08004KT 4SM BR VCSH OVC006 FM191700 15005KT 5SM -SHRA BR OVC005
NOTAMs
Click for the latest NOTAMs
NOTAMs are issued by the DoD/FAA and will open in a separate window not controlled by AirNav.

 

 
 

Would you like to see your business listed on this page?

 If your business provides an interesting product or service to pilots, flight crews, aircraft, or users of the Reed Mine Airport, you should consider listing it here.  To start the listing process, click on the button below
 
Add a business
 

Other Pages about Reed Mine Airport

Update a link
 
Copyright © AirNav, LLC. All rights reserved. Privacy Policy  Contact